Ellesmere Port, United Kingdom
Current Conditions -  °F | °C
As of 6:20 AM on Monday 26 Jan 2015 (Local Time) from EGGP Reporting Station
Light Rain Light Rain  
Wind Chill: 40°   Ceiling: 4400
Heat Index: 46°   Visibility: 6mi
Dew Point: 43°   Wind: 14mph
Humidity: 87%   Direction: 290°WNW
Pressure: 30.12"   Gusts: NA
Location:  53.28°N, 2.9°W
Report Text: EGGP 260620Z 29012KT 9999 -RA SCT025 BKN044 08/06 Q1020
Loading
Personal Weather Stations






























Interactive Weather Map New forecast layout! Learn more

10-Day Weather Forecast

Advertisements
Track Severe Weather on mobile